sensor_id;sensor_type;location;lat;lon;timestamp;pressure;altitude;pressure_sealevel;temperature;humidity
7966;BME280;4028;43.272;26.932;2023-02-02T00:01:56;98979.91;;;3.70;100.00
7966;BME280;4028;43.272;26.932;2023-02-02T00:04:28;98963.59;;;3.67;100.00
7966;BME280;4028;43.272;26.932;2023-02-02T00:06:54;98977.00;;;3.75;100.00
7966;BME280;4028;43.272;26.932;2023-02-02T00:09:22;98976.25;;;3.73;100.00
7966;BME280;4028;43.272;26.932;2023-02-02T00:11:48;98978.84;;;3.73;100.00
7966;BME280;4028;43.272;26.932;2023-02-02T00:14:16;98974.91;;;3.80;100.00
7966;BME280;4028;43.272;26.932;2023-02-02T00:19:28;98974.16;;;3.90;100.00
7966;BME280;4028;43.272;26.932;2023-02-02T00:21:56;98966.50;;;3.87;100.00
7966;BME280;4028;43.272;26.932;2023-02-02T00:24:22;98962.94;;;3.88;100.00
7966;BME280;4028;43.272;26.932;2023-02-02T00:26:53;98973.00;;;3.95;100.00
7966;BME280;4028;43.272;26.932;2023-02-02T00:29:28;98971.97;;;3.84;100.00
7966;BME280;4028;43.272;26.932;2023-02-02T00:31:54;98960.25;;;3.90;100.00
7966;BME280;4028;43.272;26.932;2023-02-02T00:34:20;98966.19;;;3.92;100.00
7966;BME280;4028;43.272;26.932;2023-02-02T00:36:46;98956.13;;;3.99;100.00
7966;BME280;4028;43.272;26.932;2023-02-02T00:39:19;98964.81;;;3.99;100.00
7966;BME280;4028;43.272;26.932;2023-02-02T00:41:45;98952.78;;;3.97;100.00
7966;BME280;4028;43.272;26.932;2023-02-02T00:44:11;98913.34;;;3.74;100.00
7966;BME280;4028;43.272;26.932;2023-02-02T00:46:55;98941.91;;;3.90;100.00
7966;BME280;4028;43.272;26.932;2023-02-02T00:49:20;98945.56;;;4.00;100.00
7966;BME280;4028;43.272;26.932;2023-02-02T00:51:46;98934.13;;;4.01;100.00
7966;BME280;4028;43.272;26.932;2023-02-02T00:54:11;98936.31;;;4.07;100.00
7966;BME280;4028;43.272;26.932;2023-02-02T00:56:39;98935.69;;;4.04;100.00
7966;BME280;4028;43.272;26.932;2023-02-02T00:59:04;98931.22;;;3.93;100.00
7966;BME280;4028;43.272;26.932;2023-02-02T01:01:30;98927.88;;;3.78;100.00
7966;BME280;4028;43.272;26.932;2023-02-02T01:03:55;98935.31;;;3.84;100.00
7966;BME280;4028;43.272;26.932;2023-02-02T01:06:21;98937.31;;;3.81;100.00
7966;BME280;4028;43.272;26.932;2023-02-02T01:08:46;98929.13;;;3.85;100.00
7966;BME280;4028;43.272;26.932;2023-02-02T01:11:12;98927.25;;;3.87;100.00
7966;BME280;4028;43.272;26.932;2023-02-02T01:13:37;98931.97;;;3.95;100.00
7966;BME280;4028;43.272;26.932;2023-02-02T01:16:03;98928.16;;;3.99;100.00
7966;BME280;4028;43.272;26.932;2023-02-02T01:18:29;98913.31;;;4.00;100.00
7966;BME280;4028;43.272;26.932;2023-02-02T01:20:59;98925.44;;;4.01;100.00
7966;BME280;4028;43.272;26.932;2023-02-02T01:23:26;98923.66;;;4.01;100.00
7966;BME280;4028;43.272;26.932;2023-02-02T01:25:53;98921.38;;;3.97;100.00
7966;BME280;4028;43.272;26.932;2023-02-02T01:28:18;98925.44;;;4.01;100.00
7966;BME280;4028;43.272;26.932;2023-02-02T01:30:44;98918.66;;;3.85;100.00
7966;BME280;4028;43.272;26.932;2023-02-02T01:33:09;98924.53;;;3.89;100.00
7966;BME280;4028;43.272;26.932;2023-02-02T01:35:35;98921.16;;;3.87;100.00
7966;BME280;4028;43.272;26.932;2023-02-02T01:38:00;98917.31;;;3.80;100.00
7966;BME280;4028;43.272;26.932;2023-02-02T01:40:26;98905.91;;;3.81;100.00
7966;BME280;4028;43.272;26.932;2023-02-02T01:42:51;98918.44;;;3.88;100.00
7966;BME280;4028;43.272;26.932;2023-02-02T01:45:23;98917.84;;;3.85;100.00
7966;BME280;4028;43.272;26.932;2023-02-02T01:47:53;98919.81;;;3.81;100.00
7966;BME280;4028;43.272;26.932;2023-02-02T01:50:24;98919.00;;;3.81;100.00
7966;BME280;4028;43.272;26.932;2023-02-02T01:52:52;98914.56;;;3.94;100.00
7966;BME280;4028;43.272;26.932;2023-02-02T01:55:21;98923.47;;;3.91;100.00
7966;BME280;4028;43.272;26.932;2023-02-02T01:58:19;98929.13;;;3.85;100.00
7966;BME280;4028;43.272;26.932;2023-02-02T02:00:47;98933.94;;;3.91;100.00
7966;BME280;4028;43.272;26.932;2023-02-02T02:03:19;98927.34;;;3.86;100.00
7966;BME280;4028;43.272;26.932;2023-02-02T02:05:51;98928.06;;;3.88;100.00
7966;BME280;4028;43.272;26.932;2023-02-02T02:08:27;98935.94;;;3.88;100.00
7966;BME280;4028;43.272;26.932;2023-02-02T02:10:53;98934.16;;;3.88;100.00
7966;BME280;4028;43.272;26.932;2023-02-02T02:13:21;98894.00;;;3.64;100.00
7966;BME280;4028;43.272;26.932;2023-02-02T02:16:21;98933.81;;;3.93;100.00
7966;BME280;4028;43.272;26.932;2023-02-02T02:22:01;98936.59;;;3.79;100.00
7966;BME280;4028;43.272;26.932;2023-02-02T02:25:40;98943.56;;;3.91;100.00
7966;BME280;4028;43.272;26.932;2023-02-02T02:33:46;98937.63;;;3.76;100.00
7966;BME280;4028;43.272;26.932;2023-02-02T02:36:44;98951.84;;;3.72;100.00
7966;BME280;4028;43.272;26.932;2023-02-02T02:41:59;98949.03;;;3.75;100.00
7966;BME280;4028;43.272;26.932;2023-02-02T02:44:27;98945.59;;;3.75;100.00
7966;BME280;4028;43.272;26.932;2023-02-02T02:46:55;98941.31;;;3.74;100.00
7966;BME280;4028;43.272;26.932;2023-02-02T02:49:21;98929.06;;;3.74;100.00
7966;BME280;4028;43.272;26.932;2023-02-02T02:51:51;98939.28;;;3.77;100.00
7966;BME280;4028;43.272;26.932;2023-02-02T02:54:29;98933.53;;;3.85;100.00
7966;BME280;4028;43.272;26.932;2023-02-02T03:10:30;98917.94;;;3.71;100.00
7966;BME280;4028;43.272;26.932;2023-02-02T03:12:56;98907.28;;;3.74;100.00
7966;BME280;4028;43.272;26.932;2023-02-02T03:15:22;98919.41;;;3.75;100.00
7966;BME280;4028;43.272;26.932;2023-02-02T03:17:49;98909.91;;;3.74;100.00
7966;BME280;4028;43.272;26.932;2023-02-02T03:20:16;98907.59;;;3.69;100.00
7966;BME280;4028;43.272;26.932;2023-02-02T03:22:42;98904.56;;;3.75;100.00
7966;BME280;4028;43.272;26.932;2023-02-02T03:25:08;98913.88;;;3.79;100.00
7966;BME280;4028;43.272;26.932;2023-02-02T03:27:36;98892.31;;;3.76;100.00
7966;BME280;4028;43.272;26.932;2023-02-02T03:30:03;98894.19;;;3.74;100.00
7966;BME280;4028;43.272;26.932;2023-02-02T03:32:29;98905.59;;;3.73;100.00
7966;BME280;4028;43.272;26.932;2023-02-02T03:34:55;98891.06;;;3.69;100.00
7966;BME280;4028;43.272;26.932;2023-02-02T03:37:20;98873.06;;;3.51;100.00
7966;BME280;4028;43.272;26.932;2023-02-02T03:39:46;98881.13;;;3.61;100.00
7966;BME280;4028;43.272;26.932;2023-02-02T03:42:11;98912.09;;;3.67;100.00
7966;BME280;4028;43.272;26.932;2023-02-02T03:44:37;98903.19;;;3.70;100.00
7966;BME280;4028;43.272;26.932;2023-02-02T03:47:02;98890.34;;;3.54;100.00
7966;BME280;4028;43.272;26.932;2023-02-02T03:49:27;98903.72;;;3.62;100.00
7966;BME280;4028;43.272;26.932;2023-02-02T03:51:53;98894.75;;;3.53;100.00
7966;BME280;4028;43.272;26.932;2023-02-02T03:54:18;98891.91;;;3.56;100.00
7966;BME280;4028;43.272;26.932;2023-02-02T03:56:44;98890.97;;;3.45;100.00
7966;BME280;4028;43.272;26.932;2023-02-02T03:59:09;98891.59;;;3.48;100.00
7966;BME280;4028;43.272;26.932;2023-02-02T04:01:35;98899.09;;;3.53;100.00
7966;BME280;4028;43.272;26.932;2023-02-02T04:04:00;98891.91;;;3.56;100.00
7966;BME280;4028;43.272;26.932;2023-02-02T04:06:26;98902.47;;;3.55;100.00
7966;BME280;4028;43.272;26.932;2023-02-02T04:08:52;98890.88;;;3.59;100.00
7966;BME280;4028;43.272;26.932;2023-02-02T04:11:17;98866.47;;;3.58;100.00
7966;BME280;4028;43.272;26.932;2023-02-02T04:13:43;98888.88;;;3.50;100.00
7966;BME280;4028;43.272;26.932;2023-02-02T04:16:10;98884.47;;;3.37;100.00
7966;BME280;4028;43.272;26.932;2023-02-02T04:18:36;98868.16;;;3.34;100.00
7966;BME280;4028;43.272;26.932;2023-02-02T04:21:05;98884.91;;;3.44;100.00
7966;BME280;4028;43.272;26.932;2023-02-02T04:23:31;98875.69;;;3.51;100.00
7966;BME280;4028;43.272;26.932;2023-02-02T04:25:57;98884.91;;;3.44;100.00
7966;BME280;4028;43.272;26.932;2023-02-02T04:28:23;98883.25;;;3.43;100.00
7966;BME280;4028;43.272;26.932;2023-02-02T04:30:50;98888.47;;;3.43;100.00
7966;BME280;4028;43.272;26.932;2023-02-02T04:33:16;98886.16;;;3.38;100.00
7966;BME280;4028;43.272;26.932;2023-02-02T04:35:42;98884.56;;;3.36;100.00
7966;BME280;4028;43.272;26.932;2023-02-02T04:38:08;98881.97;;;3.36;100.00
7966;BME280;4028;43.272;26.932;2023-02-02T04:40:40;98892.66;;;3.33;100.00
7966;BME280;4028;43.272;26.932;2023-02-02T04:43:06;98874.13;;;3.23;100.00
7966;BME280;4028;43.272;26.932;2023-02-02T04:45:31;98878.00;;;3.30;100.00
7966;BME280;4028;43.272;26.932;2023-02-02T04:47:57;98886.97;;;3.26;100.00
7966;BME280;4028;43.272;26.932;2023-02-02T04:50:23;98896.59;;;3.26;100.00
7966;BME280;4028;43.272;26.932;2023-02-02T04:52:48;98897.44;;;3.26;100.00
7966;BME280;4028;43.272;26.932;2023-02-02T04:55:14;98903.94;;;3.33;100.00
7966;BME280;4028;43.272;26.932;2023-02-02T04:57:40;98904.88;;;3.20;100.00
7966;BME280;4028;43.272;26.932;2023-02-02T05:00:06;98900.16;;;3.25;100.00
7966;BME280;4028;43.272;26.932;2023-02-02T05:02:34;98884.25;;;3.15;100.00
7966;BME280;4028;43.272;26.932;2023-02-02T05:05:01;98902.59;;;3.28;100.00
7966;BME280;4028;43.272;26.932;2023-02-02T05:07:26;98893.69;;;3.30;100.00
7966;BME280;4028;43.272;26.932;2023-02-02T05:09:51;98873.88;;;3.01;100.00
7966;BME280;4028;43.272;26.932;2023-02-02T05:12:17;98901.19;;;3.22;100.00
7966;BME280;4028;43.272;26.932;2023-02-02T05:14:42;98916.06;;;3.22;100.00
7966;BME280;4028;43.272;26.932;2023-02-02T05:17:08;98914.59;;;3.18;100.00
7966;BME280;4028;43.272;26.932;2023-02-02T05:19:33;98923.38;;;3.17;100.00
7966;BME280;4028;43.272;26.932;2023-02-02T05:21:59;98908.97;;;3.24;100.00
7966;BME280;4028;43.272;26.932;2023-02-02T05:24:24;98913.53;;;3.20;100.00
7966;BME280;4028;43.272;26.932;2023-02-02T05:26:52;98920.38;;;3.23;100.00
7966;BME280;4028;43.272;26.932;2023-02-02T05:29:19;98919.13;;;3.28;100.00
7966;BME280;4028;43.272;26.932;2023-02-02T05:31:44;98928.09;;;3.24;100.00
7966;BME280;4028;43.272;26.932;2023-02-02T05:34:09;98932.56;;;3.22;100.00
7966;BME280;4028;43.272;26.932;2023-02-02T05:36:35;98910.28;;;3.17;100.00
7966;BME280;4028;43.272;26.932;2023-02-02T05:39:01;98897.88;;;3.07;100.00
7966;BME280;4028;43.272;26.932;2023-02-02T05:41:26;98928.75;;;3.28;100.00
7966;BME280;4028;43.272;26.932;2023-02-02T05:43:52;98930.94;;;3.34;100.00
7966;BME280;4028;43.272;26.932;2023-02-02T05:46:17;98932.91;;;3.30;100.00
7966;BME280;4028;43.272;26.932;2023-02-02T05:48:43;98936.56;;;3.41;100.00
7966;BME280;4028;43.272;26.932;2023-02-02T05:51:16;98941.28;;;3.35;100.00
7966;BME280;4028;43.272;26.932;2023-02-02T05:53:43;98945.38;;;3.39;100.00
7966;BME280;4028;43.272;26.932;2023-02-02T05:56:12;98931.88;;;3.46;100.00
7966;BME280;4028;43.272;26.932;2023-02-02T05:58:40;98937.00;;;3.47;100.00
7966;BME280;4028;43.272;26.932;2023-02-02T06:01:05;98935.53;;;3.56;100.00
7966;BME280;4028;43.272;26.932;2023-02-02T06:03:31;98929.69;;;3.65;100.00
7966;BME280;4028;43.272;26.932;2023-02-02T06:05:56;98927.50;;;3.59;100.00
7966;BME280;4028;43.272;26.932;2023-02-02T06:08:21;98943.78;;;3.62;100.00
7966;BME280;4028;43.272;26.932;2023-02-02T06:10:47;98935.84;;;3.77;100.00
7966;BME280;4028;43.272;26.932;2023-02-02T06:13:12;98928.00;;;3.77;100.00
7966;BME280;4028;43.272;26.932;2023-02-02T06:15:38;98925.50;;;3.75;100.00
7966;BME280;4028;43.272;26.932;2023-02-02T06:18:03;98938.47;;;3.89;100.00
7966;BME280;4028;43.272;26.932;2023-02-02T06:20:31;98931.44;;;3.90;100.00
7966;BME280;4028;43.272;26.932;2023-02-02T06:22:56;98942.63;;;4.05;100.00
7966;BME280;4028;43.272;26.932;2023-02-02T06:25:22;98924.31;;;3.92;100.00
7966;BME280;4028;43.272;26.932;2023-02-02T06:27:47;98944.41;;;3.91;100.00
7966;BME280;4028;43.272;26.932;2023-02-02T06:30:14;98951.13;;;3.96;100.00
7966;BME280;4028;43.272;26.932;2023-02-02T06:32:40;98946.06;;;4.05;100.00
7966;BME280;4028;43.272;26.932;2023-02-02T06:35:06;98959.78;;;4.09;100.00
7966;BME280;4028;43.272;26.932;2023-02-02T06:37:32;98952.66;;;3.98;100.00
7966;BME280;4028;43.272;26.932;2023-02-02T06:39:58;98953.09;;;4.05;100.00
7966;BME280;4028;43.272;26.932;2023-02-02T06:42:24;98952.44;;;4.14;100.00
7966;BME280;4028;43.272;26.932;2023-02-02T06:44:49;98950.13;;;4.22;100.00
7966;BME280;4028;43.272;26.932;2023-02-02T06:47:15;98949.28;;;4.22;100.00
7966;BME280;4028;43.272;26.932;2023-02-02T06:49:40;98954.72;;;4.18;100.00
7966;BME280;4028;43.272;26.932;2023-02-02T06:52:06;98954.00;;;4.16;100.00
7966;BME280;4028;43.272;26.932;2023-02-02T06:54:32;98954.63;;;4.20;100.00
7966;BME280;4028;43.272;26.932;2023-02-02T06:56:57;98957.72;;;4.38;100.00
7966;BME280;4028;43.272;26.932;2023-02-02T06:59:23;98942.44;;;4.32;100.00
7966;BME280;4028;43.272;26.932;2023-02-02T07:01:49;98944.19;;;4.44;100.00
7966;BME280;4028;43.272;26.932;2023-02-02T07:04:17;98948.56;;;4.56;100.00
7966;BME280;4028;43.272;26.932;2023-02-02T07:06:43;98940.38;;;4.61;100.00
7966;BME280;4028;43.272;26.932;2023-02-02T07:09:08;98963.88;;;4.74;100.00
7966;BME280;4028;43.272;26.932;2023-02-02T07:11:34;98951.41;;;4.77;100.00
7966;BME280;4028;43.272;26.932;2023-02-02T07:14:03;98949.19;;;4.95;100.00
7966;BME280;4028;43.272;26.932;2023-02-02T07:16:28;98959.63;;;5.08;100.00
7966;BME280;4028;43.272;26.932;2023-02-02T07:18:54;98960.91;;;5.37;100.00
7966;BME280;4028;43.272;26.932;2023-02-02T07:21:22;98936.84;;;5.55;100.00
7966;BME280;4028;43.272;26.932;2023-02-02T07:23:49;98931.25;;;5.59;100.00
7966;BME280;4028;43.272;26.932;2023-02-02T07:26:16;98960.16;;;5.82;100.00
7966;BME280;4028;43.272;26.932;2023-02-02T07:28:42;98972.66;;;5.67;100.00
7966;BME280;4028;43.272;26.932;2023-02-02T07:31:18;98954.38;;;5.43;100.00
7966;BME280;4028;43.272;26.932;2023-02-02T07:33:44;98967.31;;;5.22;100.00
7966;BME280;4028;43.272;26.932;2023-02-02T07:36:12;98958.06;;;5.05;100.00
7966;BME280;4028;43.272;26.932;2023-02-02T07:38:40;98968.13;;;4.87;100.00
7966;BME280;4028;43.272;26.932;2023-02-02T07:41:06;98966.22;;;4.89;100.00
7966;BME280;4028;43.272;26.932;2023-02-02T07:43:31;98968.69;;;4.80;100.00
7966;BME280;4028;43.272;26.932;2023-02-02T07:46:01;98961.31;;;4.85;100.00
7966;BME280;4028;43.272;26.932;2023-02-02T07:48:30;98959.03;;;4.80;100.00
7966;BME280;4028;43.272;26.932;2023-02-02T07:51:02;98961.16;;;4.75;100.00
7966;BME280;4028;43.272;26.932;2023-02-02T07:53:28;98975.50;;;4.82;100.00
7966;BME280;4028;43.272;26.932;2023-02-02T07:56:05;98971.34;;;4.91;100.00
7966;BME280;4028;43.272;26.932;2023-02-02T07:58:31;98969.00;;;4.99;100.00
7966;BME280;4028;43.272;26.932;2023-02-02T08:01:04;98963.97;;;5.20;100.00
7966;BME280;4028;43.272;26.932;2023-02-02T08:03:29;98964.56;;;5.24;100.00
7966;BME280;4028;43.272;26.932;2023-02-02T08:05:56;98982.28;;;5.44;100.00
7966;BME280;4028;43.272;26.932;2023-02-02T08:08:22;98963.31;;;5.52;100.00
7966;BME280;4028;43.272;26.932;2023-02-02T08:10:52;98983.06;;;5.22;100.00
7966;BME280;4028;43.272;26.932;2023-02-02T08:13:19;98978.69;;;5.34;100.00
7966;BME280;4028;43.272;26.932;2023-02-02T08:15:45;98981.41;;;5.32;100.00
7966;BME280;4028;43.272;26.932;2023-02-02T08:18:10;98974.59;;;5.30;100.00
7966;BME280;4028;43.272;26.932;2023-02-02T08:20:36;98968.91;;;5.36;100.00
7966;BME280;4028;43.272;26.932;2023-02-02T08:23:01;98982.66;;;5.62;100.00
7966;BME280;4028;43.272;26.932;2023-02-02T08:25:27;98979.63;;;6.24;100.00
7966;BME280;4028;43.272;26.932;2023-02-02T08:27:53;98967.97;;;6.83;100.00
7966;BME280;4028;43.272;26.932;2023-02-02T08:30:19;98979.56;;;6.69;100.00
7966;BME280;4028;43.272;26.932;2023-02-02T08:32:45;98972.69;;;6.57;100.00
7966;BME280;4028;43.272;26.932;2023-02-02T08:35:10;98969.97;;;6.47;100.00
7966;BME280;4028;43.272;26.932;2023-02-02T08:37:36;98965.78;;;6.33;100.00
7966;BME280;4028;43.272;26.932;2023-02-02T08:40:01;98973.22;;;7.36;100.00
7966;BME280;4028;43.272;26.932;2023-02-02T08:42:27;98969.13;;;7.64;100.00
7966;BME280;4028;43.272;26.932;2023-02-02T08:44:52;98970.59;;;7.56;100.00
7966;BME280;4028;43.272;26.932;2023-02-02T08:47:18;98974.41;;;7.64;100.00
7966;BME280;4028;43.272;26.932;2023-02-02T08:49:43;98970.50;;;7.58;100.00
7966;BME280;4028;43.272;26.932;2023-02-02T08:52:09;98971.88;;;7.62;100.00
7966;BME280;4028;43.272;26.932;2023-02-02T08:54:34;98939.03;;;7.87;100.00
7966;BME280;4028;43.272;26.932;2023-02-02T08:57:00;98966.91;;;8.51;96.22
7966;BME280;4028;43.272;26.932;2023-02-02T08:59:25;98977.66;;;8.88;90.92
7966;BME280;4028;43.272;26.932;2023-02-02T09:01:51;98966.00;;;9.10;81.41
7966;BME280;4028;43.272;26.932;2023-02-02T09:04:16;98970.19;;;9.32;76.74
7966;BME280;4028;43.272;26.932;2023-02-02T09:06:42;98959.31;;;9.35;72.45
7966;BME280;4028;43.272;26.932;2023-02-02T09:09:11;98972.25;;;9.48;70.79
7966;BME280;4028;43.272;26.932;2023-02-02T09:11:37;98961.69;;;9.57;67.90
7966;BME280;4028;43.272;26.932;2023-02-02T09:14:02;98956.13;;;9.41;68.80
7966;BME280;4028;43.272;26.932;2023-02-02T09:16:30;98939.56;;;9.58;69.08
7966;BME280;4028;43.272;26.932;2023-02-02T09:18:56;98938.81;;;9.76;67.24
7966;BME280;4028;43.272;26.932;2023-02-02T09:21:22;98921.28;;;9.84;65.27
7966;BME280;4028;43.272;26.932;2023-02-02T09:23:49;98920.56;;;9.82;63.65
7966;BME280;4028;43.272;26.932;2023-02-02T09:26:28;98919.38;;;10.04;63.02
7966;BME280;4028;43.272;26.932;2023-02-02T09:28:57;98927.09;;;10.25;62.67
7966;BME280;4028;43.272;26.932;2023-02-02T09:31:23;98928.53;;;10.10;63.18
7966;BME280;4028;43.272;26.932;2023-02-02T09:33:49;98928.31;;;10.03;62.43
7966;BME280;4028;43.272;26.932;2023-02-02T09:36:20;98911.00;;;9.72;65.06
7966;BME280;4028;43.272;26.932;2023-02-02T09:38:46;98912.81;;;9.71;65.36
7966;BME280;4028;43.272;26.932;2023-02-02T09:49:27;98915.22;;;10.02;60.80
7966;BME280;4028;43.272;26.932;2023-02-02T09:52:02;98925.13;;;9.53;63.00
7966;BME280;4028;43.272;26.932;2023-02-02T09:54:37;98927.03;;;9.98;64.51
7966;BME280;4028;43.272;26.932;2023-02-02T09:57:12;98905.69;;;10.64;61.58
7966;BME280;4028;43.272;26.932;2023-02-02T09:59:40;98923.16;;;11.28;58.16
7966;BME280;4028;43.272;26.932;2023-02-02T10:02:34;98911.94;;;11.52;56.23
7966;BME280;4028;43.272;26.932;2023-02-02T10:05:10;98903.16;;;11.52;55.96
7966;BME280;4028;43.272;26.932;2023-02-02T10:07:40;98924.28;;;11.43;55.93
7966;BME280;4028;43.272;26.932;2023-02-02T10:10:15;98917.56;;;11.31;55.97
7966;BME280;4028;43.272;26.932;2023-02-02T10:15:49;98914.72;;;11.07;56.72
7966;BME280;4028;43.272;26.932;2023-02-02T10:20:56;98910.72;;;11.03;57.24
7966;BME280;4028;43.272;26.932;2023-02-02T10:28:41;98901.72;;;11.39;56.94
7966;BME280;4028;43.272;26.932;2023-02-02T10:31:29;98920.34;;;11.30;56.15
7966;BME280;4028;43.272;26.932;2023-02-02T10:34:12;98894.31;;;10.81;56.79
7966;BME280;4028;43.272;26.932;2023-02-02T10:39:49;98911.41;;;10.14;59.78
7966;BME280;4028;43.272;26.932;2023-02-02T10:42:41;98912.63;;;10.20;58.55
7966;BME280;4028;43.272;26.932;2023-02-02T10:45:14;98908.50;;;10.07;58.53
7966;BME280;4028;43.272;26.932;2023-02-02T10:47:42;98880.13;;;9.72;59.48
7966;BME280;4028;43.272;26.932;2023-02-02T10:52:37;98883.41;;;9.47;61.59
7966;BME280;4028;43.272;26.932;2023-02-02T10:55:06;98886.69;;;9.78;61.85
7966;BME280;4028;43.272;26.932;2023-02-02T11:00:31;98893.38;;;10.00;58.90
7966;BME280;4028;43.272;26.932;2023-02-02T11:02:59;98888.97;;;9.53;60.55
7966;BME280;4028;43.272;26.932;2023-02-02T11:05:29;98887.34;;;9.43;62.57
7966;BME280;4028;43.272;26.932;2023-02-02T11:08:21;98883.53;;;10.29;59.51
7966;BME280;4028;43.272;26.932;2023-02-02T11:10:52;98869.09;;;11.13;56.04
7966;BME280;4028;43.272;26.932;2023-02-02T11:13:30;98871.97;;;12.06;53.58
7966;BME280;4028;43.272;26.932;2023-02-02T11:18:42;98859.72;;;12.05;53.45
7966;BME280;4028;43.272;26.932;2023-02-02T11:21:29;98859.34;;;12.00;53.38
7966;BME280;4028;43.272;26.932;2023-02-02T11:24:01;98855.41;;;12.04;53.21
7966;BME280;4028;43.272;26.932;2023-02-02T11:26:48;98851.13;;;11.51;53.68
7966;BME280;4028;43.272;26.932;2023-02-02T11:29:21;98859.41;;;11.04;53.87
7966;BME280;4028;43.272;26.932;2023-02-02T11:31:48;98854.47;;;10.65;54.72
7966;BME280;4028;43.272;26.932;2023-02-02T11:34:18;98859.75;;;10.47;54.43
7966;BME280;4028;43.272;26.932;2023-02-02T11:39:23;98857.91;;;10.48;55.04
7966;BME280;4028;43.272;26.932;2023-02-02T11:41:48;98859.50;;;10.58;54.89
7966;BME280;4028;43.272;26.932;2023-02-02T11:44:26;98851.88;;;10.73;54.49
7966;BME280;4028;43.272;26.932;2023-02-02T11:46:52;98863.53;;;10.80;54.93
7966;BME280;4028;43.272;26.932;2023-02-02T11:49:20;98859.38;;;10.78;54.00
7966;BME280;4028;43.272;26.932;2023-02-02T11:52:01;98849.94;;;10.75;53.45
7966;BME280;4028;43.272;26.932;2023-02-02T11:54:32;98859.38;;;10.60;53.81
7966;BME280;4028;43.272;26.932;2023-02-02T11:57:00;98850.50;;;10.69;54.24
7966;BME280;4028;43.272;26.932;2023-02-02T11:59:38;98856.72;;;10.60;53.39
7966;BME280;4028;43.272;26.932;2023-02-02T12:05:13;98850.28;;;10.62;52.23
7966;BME280;4028;43.272;26.932;2023-02-02T12:07:41;98848.09;;;10.58;51.91
7966;BME280;4028;43.272;26.932;2023-02-02T12:13:25;98846.06;;;10.52;51.52
7966;BME280;4028;43.272;26.932;2023-02-02T12:16:09;98855.28;;;10.48;51.32
7966;BME280;4028;43.272;26.932;2023-02-02T12:24:33;98854.00;;;10.52;50.99
7966;BME280;4028;43.272;26.932;2023-02-02T12:32:53;98831.38;;;9.94;51.44
7966;BME280;4028;43.272;26.932;2023-02-02T12:50:38;98823.41;;;10.04;52.82
7966;BME280;4028;43.272;26.932;2023-02-02T12:56:41;98830.72;;;9.82;52.75
7966;BME280;4028;43.272;26.932;2023-02-02T13:02:10;98825.38;;;9.92;52.87
7966;BME280;4028;43.272;26.932;2023-02-02T13:09:59;98831.66;;;9.63;51.89
7966;BME280;4028;43.272;26.932;2023-02-02T13:12:28;98815.19;;;9.42;51.99
7966;BME280;4028;43.272;26.932;2023-02-02T13:15:00;98824.59;;;9.54;51.37
7966;BME280;4028;43.272;26.932;2023-02-02T13:19:59;98832.81;;;9.51;51.30
7966;BME280;4028;43.272;26.932;2023-02-02T13:22:37;98816.91;;;9.33;51.97
7966;BME280;4028;43.272;26.932;2023-02-02T13:25:06;98822.97;;;9.44;52.06
7966;BME280;4028;43.272;26.932;2023-02-02T13:27:35;98815.06;;;9.44;52.15
7966;BME280;4028;43.272;26.932;2023-02-02T13:32:37;98820.38;;;9.61;51.77
7966;BME280;4028;43.272;26.932;2023-02-02T13:35:16;98800.28;;;9.51;52.10
7966;BME280;4028;43.272;26.932;2023-02-02T13:40:39;98837.69;;;9.46;52.63
7966;BME280;4028;43.272;26.932;2023-02-02T13:43:15;98845.56;;;9.56;52.22
7966;BME280;4028;43.272;26.932;2023-02-02T13:46:05;98844.50;;;9.49;52.84
7966;BME280;4028;43.272;26.932;2023-02-02T13:59:41;98957.25;;;8.30;100.00
7966;BME280;4028;43.272;26.932;2023-02-02T14:04:56;98975.28;;;7.74;100.00
7966;BME280;4028;43.272;26.932;2023-02-02T14:07:54;98970.22;;;7.40;100.00
7966;BME280;4028;43.272;26.932;2023-02-02T14:10:27;98954.47;;;7.08;100.00
7966;BME280;4028;43.272;26.932;2023-02-02T14:12:54;98962.16;;;7.00;100.00
7966;BME280;4028;43.272;26.932;2023-02-02T14:15:37;98954.94;;;6.81;100.00
7966;BME280;4028;43.272;26.932;2023-02-02T14:18:03;98938.84;;;6.63;100.00
7966;BME280;4028;43.272;26.932;2023-02-02T14:20:47;98925.97;;;6.49;100.00
7966;BME280;4028;43.272;26.932;2023-02-02T14:23:50;98904.78;;;6.30;100.00
7966;BME280;4028;43.272;26.932;2023-02-02T14:29:09;98892.97;;;6.13;100.00
7966;BME280;4028;43.272;26.932;2023-02-02T14:31:52;98870.66;;;5.85;100.00
7966;BME280;4028;43.272;26.932;2023-02-02T14:45:37;98904.41;;;5.56;100.00
7966;BME280;4028;43.272;26.932;2023-02-02T14:55:53;98918.72;;;5.52;100.00
7966;BME280;4028;43.272;26.932;2023-02-02T14:58:36;98911.19;;;5.47;100.00
7966;BME280;4028;43.272;26.932;2023-02-02T15:01:07;98906.06;;;5.45;100.00
7966;BME280;4028;43.272;26.932;2023-02-02T15:03:54;98904.41;;;5.44;100.00
7966;BME280;4028;43.272;26.932;2023-02-02T15:19:44;98913.66;;;5.37;100.00
7966;BME280;4028;43.272;26.932;2023-02-02T15:22:29;98919.88;;;5.47;100.00
7966;BME280;4028;43.272;26.932;2023-02-02T15:24:58;98928.22;;;5.41;100.00
7966;BME280;4028;43.272;26.932;2023-02-02T15:27:27;98946.03;;;5.38;100.00
7966;BME280;4028;43.272;26.932;2023-02-02T15:30:02;98944.31;;;5.26;100.00
7966;BME280;4028;43.272;26.932;2023-02-02T15:32:29;98932.72;;;5.17;100.00
7966;BME280;4028;43.272;26.932;2023-02-02T15:35:02;98951.97;;;5.29;100.00
7966;BME280;4028;43.272;26.932;2023-02-02T15:37:31;98935.09;;;5.20;100.00
7966;BME280;4028;43.272;26.932;2023-02-02T15:40:09;98952.44;;;5.34;100.00
7966;BME280;4028;43.272;26.932;2023-02-02T15:45:53;98954.41;;;5.08;100.00
7966;BME280;4028;43.272;26.932;2023-02-02T15:48:25;98962.00;;;5.11;100.00
7966;BME280;4028;43.272;26.932;2023-02-02T15:50:55;98965.75;;;5.19;100.00
7966;BME280;4028;43.272;26.932;2023-02-02T15:53:47;98976.88;;;5.23;100.00
7966;BME280;4028;43.272;26.932;2023-02-02T15:56:32;98981.00;;;5.14;100.00
7966;BME280;4028;43.272;26.932;2023-02-02T15:58:58;98982.50;;;5.06;100.00
7966;BME280;4028;43.272;26.932;2023-02-02T16:01:26;98975.13;;;5.11;100.00
7966;BME280;4028;43.272;26.932;2023-02-02T16:04:13;98932.44;;;4.74;100.00
7966;BME280;4028;43.272;26.932;2023-02-02T16:06:42;98986.16;;;4.92;100.00
7966;BME280;4028;43.272;26.932;2023-02-02T16:09:29;98990.69;;;5.01;100.00
7966;BME280;4028;43.272;26.932;2023-02-02T16:11:56;98988.47;;;4.84;100.00